createdAt,value
2019-02-21T00:00:00.510Z,6.70
2019-02-21T00:01:37.622Z,6.93
2019-02-21T00:03:13.824Z,7.43
2019-02-21T00:04:48.942Z,7.20
2019-02-21T00:06:24.074Z,7.37
2019-02-21T00:07:59.213Z,7.23
2019-02-21T00:09:34.331Z,7.20
2019-02-21T00:11:09.482Z,5.93
2019-02-21T00:12:44.578Z,6.77
2019-02-21T00:14:19.702Z,7.23
2019-02-21T00:15:54.817Z,6.70
2019-02-21T00:17:30.308Z,6.83
2019-02-21T00:19:05.426Z,7.97
2019-02-21T00:20:40.571Z,9.00
2019-02-21T00:22:16.006Z,7.50
2019-02-21T00:23:51.577Z,7.97
2019-02-21T00:25:26.702Z,7.53
2019-02-21T00:27:01.827Z,7.53
2019-02-21T00:28:36.954Z,7.83
2019-02-21T00:30:12.082Z,7.33
2019-02-21T00:31:47.199Z,7.93
2019-02-21T00:33:22.332Z,7.60
2019-02-21T00:34:57.456Z,7.73
2019-02-21T00:36:32.581Z,8.73
2019-02-21T00:38:07.731Z,8.80
2019-02-21T00:39:42.843Z,8.87
2019-02-21T00:41:18.222Z,8.97
2019-02-21T00:42:53.354Z,8.17
2019-02-21T00:44:28.470Z,7.10
2019-02-21T00:46:03.595Z,7.67
2019-02-21T00:47:39.009Z,6.57
2019-02-21T00:49:14.442Z,6.17
2019-02-21T00:50:49.563Z,6.10
2019-02-21T00:52:25.015Z,7.77
2019-02-21T00:54:00.152Z,7.50
2019-02-21T00:55:35.576Z,8.00
2019-02-21T00:57:10.704Z,6.97
2019-02-21T00:58:45.841Z,8.00
2019-02-21T01:00:21.903Z,7.83
2019-02-21T01:01:57.319Z,6.70
2019-02-21T01:03:32.463Z,7.13
2019-02-21T01:05:07.588Z,7.23
2019-02-21T01:06:42.710Z,7.27
2019-02-21T01:08:17.844Z,7.00
2019-02-21T01:09:52.961Z,7.17
2019-02-21T01:11:28.091Z,7.10
2019-02-21T01:13:03.219Z,7.10
2019-02-21T01:14:38.348Z,6.27
2019-02-21T01:16:13.476Z,6.70
2019-02-21T01:17:48.593Z,7.17
2019-02-21T01:19:23.730Z,7.37
2019-02-21T01:20:58.840Z,7.60
2019-02-21T01:22:33.969Z,7.70
2019-02-21T01:24:10.236Z,7.50
2019-02-21T01:25:45.363Z,7.23
2019-02-21T01:27:20.490Z,7.90
2019-02-21T01:28:55.617Z,7.70
2019-02-21T01:30:31.148Z,7.03
2019-02-21T01:32:06.224Z,7.50
2019-02-21T01:33:41.356Z,7.23
2019-02-21T01:35:16.490Z,7.30
2019-02-21T01:36:52.426Z,7.12
2019-02-21T01:38:27.551Z,7.43
2019-02-21T01:40:02.671Z,7.03
2019-02-21T01:41:37.793Z,8.30
2019-02-21T01:43:12.920Z,7.40
2019-02-21T01:44:48.047Z,6.77
2019-02-21T01:46:23.161Z,8.07
2019-02-21T01:47:58.284Z,7.45
2019-02-21T01:49:33.425Z,7.25
2019-02-21T01:51:08.543Z,7.57
2019-02-21T01:52:43.666Z,8.17
2019-02-21T01:54:18.804Z,8.00
2019-02-21T01:55:53.920Z,6.53
2019-02-21T01:57:29.041Z,7.00
2019-02-21T01:59:04.164Z,8.53
2019-02-21T02:00:39.359Z,8.30
2019-02-21T02:02:14.549Z,6.73
2019-02-21T02:03:49.688Z,7.20
2019-02-21T02:05:24.812Z,6.97
2019-02-21T02:07:00.204Z,6.80
2019-02-21T02:08:35.407Z,6.97
2019-02-21T02:10:10.805Z,6.10
2019-02-21T02:11:45.932Z,5.67
2019-02-21T02:13:24.676Z,6.20
2019-02-21T02:14:58.172Z,6.00
2019-02-21T02:16:33.285Z,6.40
2019-02-21T02:18:08.403Z,6.67
2019-02-21T02:19:43.535Z,6.60
2019-02-21T02:21:18.656Z,6.43
2019-02-21T02:22:53.789Z,6.13
2019-02-21T02:24:28.918Z,6.77
2019-02-21T02:26:04.053Z,5.90
2019-02-21T02:27:39.171Z,7.10
2019-02-21T02:29:14.293Z,7.20
2019-02-21T02:30:49.483Z,7.10
2019-02-21T02:32:24.628Z,7.20
2019-02-21T02:33:59.755Z,6.57
2019-02-21T02:35:34.884Z,6.53
2019-02-21T02:37:10.021Z,6.90
2019-02-21T02:38:45.145Z,7.07
2019-02-21T02:40:20.260Z,6.50
2019-02-21T02:41:55.384Z,6.90
2019-02-21T02:43:30.799Z,6.77
2019-02-21T02:45:07.267Z,6.20
2019-02-21T02:46:42.380Z,6.53
2019-02-21T02:48:17.509Z,6.07
2019-02-21T02:49:53.931Z,5.90
2019-02-21T02:51:29.054Z,6.27
2019-02-21T02:53:04.179Z,6.63
2019-02-21T02:54:39.321Z,6.73
2019-02-21T02:56:14.438Z,7.90
2019-02-21T02:57:49.566Z,7.00
2019-02-21T02:59:24.685Z,6.93
2019-02-21T03:00:59.934Z,6.63
2019-02-21T03:02:35.104Z,7.23
2019-02-21T03:04:10.233Z,6.73
2019-02-21T03:05:45.352Z,7.17
2019-02-21T03:07:20.480Z,6.70
2019-02-21T03:08:55.615Z,7.73
2019-02-21T03:10:30.746Z,7.13
2019-02-21T03:12:05.870Z,7.10
2019-02-21T03:13:41.954Z,7.57
2019-02-21T03:15:17.445Z,6.60
2019-02-21T03:16:53.086Z,6.80
2019-02-21T03:18:28.219Z,6.60
2019-02-21T03:20:03.584Z,7.60
2019-02-21T03:21:38.696Z,7.30
2019-02-21T03:23:13.807Z,7.43
2019-02-21T03:24:48.927Z,6.93
2019-02-21T03:26:24.034Z,6.63
2019-02-21T03:27:59.147Z,7.43
2019-02-21T03:29:34.266Z,6.40
2019-02-21T03:31:09.416Z,7.47
2019-02-21T03:32:46.107Z,8.00
2019-02-21T03:34:21.249Z,7.93
2019-02-21T03:35:56.351Z,7.37
2019-02-21T03:37:31.462Z,7.10
2019-02-21T03:39:07.946Z,6.83
2019-02-21T03:40:43.046Z,7.27
2019-02-21T03:42:18.157Z,6.30
2019-02-21T03:43:54.152Z,6.22
2019-02-21T03:45:29.272Z,6.93
2019-02-21T03:47:04.385Z,6.83
2019-02-21T03:48:39.493Z,6.80
2019-02-21T03:50:15.586Z,7.37
2019-02-21T03:51:51.769Z,8.07
2019-02-21T03:53:26.888Z,7.40
2019-02-21T03:55:03.079Z,7.30
2019-02-21T03:56:38.194Z,8.03
2019-02-21T03:58:13.317Z,8.10
2019-02-21T03:59:48.450Z,9.33
2019-02-21T04:01:23.987Z,8.55
2019-02-21T04:02:59.182Z,8.40
2019-02-21T04:04:34.560Z,7.13
2019-02-21T04:06:09.926Z,6.97
2019-02-21T04:07:45.041Z,8.07
2019-02-21T04:09:20.411Z,7.80
2019-02-21T04:10:55.516Z,7.73
2019-02-21T04:12:30.631Z,6.80
2019-02-21T04:14:05.738Z,7.03
2019-02-21T04:15:41.117Z,7.67
2019-02-21T04:17:16.353Z,7.70
2019-02-21T04:18:51.471Z,6.67
2019-02-21T04:20:26.594Z,7.97
2019-02-21T04:22:02.010Z,7.73
2019-02-21T04:23:37.131Z,7.50
2019-02-21T04:25:12.256Z,7.17
2019-02-21T04:26:47.363Z,7.17
2019-02-21T04:28:22.734Z,7.83
2019-02-21T04:29:58.173Z,8.00
2019-02-21T04:31:34.258Z,8.13
2019-02-21T04:33:09.375Z,8.33
2019-02-21T04:34:44.518Z,8.13
2019-02-21T04:36:19.633Z,8.70
2019-02-21T04:37:54.750Z,8.17
2019-02-21T04:39:30.175Z,8.35
2019-02-21T04:41:05.584Z,8.30
2019-02-21T04:42:40.704Z,8.47
2019-02-21T04:44:15.848Z,8.03
2019-02-21T04:45:51.003Z,8.77
2019-02-21T04:47:26.120Z,8.67
2019-02-21T04:49:01.246Z,9.10
2019-02-21T04:50:36.392Z,8.80
2019-02-21T04:52:11.503Z,8.17
2019-02-21T04:53:46.900Z,8.10
2019-02-21T04:55:22.287Z,8.47
2019-02-21T04:56:57.410Z,8.60
2019-02-21T04:58:32.546Z,7.80
2019-02-21T05:00:12.741Z,7.43
2019-02-21T05:01:47.852Z,7.83
2019-02-21T05:03:22.982Z,7.97
2019-02-21T05:04:58.136Z,8.77
2019-02-21T05:06:33.235Z,8.20
2019-02-21T05:08:08.362Z,8.33
2019-02-21T05:09:43.473Z,7.60
2019-02-21T05:11:18.921Z,8.07
2019-02-21T05:12:54.769Z,7.78
2019-02-21T05:14:29.891Z,7.97
2019-02-21T05:16:05.032Z,9.17
2019-02-21T05:17:40.150Z,7.63
2019-02-21T05:19:15.276Z,7.93
2019-02-21T05:20:50.406Z,7.50
2019-02-21T05:22:25.875Z,8.60
2019-02-21T05:24:01.008Z,8.57
2019-02-21T05:25:36.462Z,8.83
2019-02-21T05:27:13.441Z,8.97
2019-02-21T05:28:48.573Z,6.77
2019-02-21T05:30:25.564Z,6.83
2019-02-21T05:32:05.087Z,8.10
2019-02-21T05:33:50.760Z,7.40
2019-02-21T05:35:36.389Z,7.53
2019-02-21T05:37:13.456Z,7.93
2019-02-21T05:38:51.228Z,8.10
2019-02-21T05:40:30.894Z,6.57
2019-02-21T05:42:10.306Z,7.72
2019-02-21T05:43:49.472Z,7.70
2019-02-21T05:45:42.993Z,7.97
2019-02-21T05:47:28.739Z,6.97
2019-02-21T05:49:05.524Z,8.27
2019-02-21T05:50:51.084Z,7.70
2019-02-21T05:52:30.542Z,8.48
2019-02-21T05:54:12.563Z,8.40
2019-02-21T05:55:51.677Z,7.83
2019-02-21T05:57:44.552Z,7.63
2019-02-21T05:59:40.151Z,7.13
2019-02-21T06:01:17.177Z,6.33
2019-02-21T06:02:56.593Z,6.67
2019-02-21T06:04:51.951Z,7.53
2019-02-21T06:06:30.816Z,7.73
2019-02-21T06:08:16.513Z,7.97
2019-02-21T06:10:02.040Z,8.20
2019-02-21T06:11:47.554Z,8.07
2019-02-21T06:13:27.526Z,8.03
2019-02-21T06:15:22.339Z,9.43
2019-02-21T06:17:17.405Z,7.90
2019-02-21T06:18:54.420Z,7.57
2019-02-21T06:20:42.945Z,7.53
2019-02-21T06:22:19.958Z,6.33
2019-02-21T06:23:59.802Z,7.92
2019-02-21T06:25:36.571Z,9.23
2019-02-21T06:27:13.326Z,9.37
2019-02-21T06:29:01.980Z,9.67
2019-02-21T06:30:43.341Z,8.60
2019-02-21T06:32:19.564Z,8.47
2019-02-21T06:33:55.606Z,9.25
2019-02-21T06:35:30.730Z,8.43
2019-02-21T06:37:05.838Z,8.33
2019-02-21T06:38:40.962Z,10.10
2019-02-21T06:40:16.075Z,9.27
2019-02-21T06:41:59.078Z,8.37
2019-02-21T06:43:28.010Z,8.67
2019-02-21T06:45:03.126Z,8.97
2019-02-21T06:46:38.253Z,8.50
2019-02-21T06:48:13.711Z,8.43
2019-02-21T06:49:48.851Z,8.63
2019-02-21T06:51:23.969Z,8.00
2019-02-21T06:52:59.087Z,8.23
2019-02-21T06:54:34.203Z,7.90
2019-02-21T06:56:09.327Z,8.07
2019-02-21T06:57:44.443Z,7.80
2019-02-21T06:59:19.560Z,6.90
2019-02-21T07:00:54.686Z,7.77
2019-02-21T07:02:29.795Z,8.13
2019-02-21T07:04:04.918Z,9.88
2019-02-21T07:05:40.039Z,9.80
2019-02-21T07:07:15.431Z,10.20
2019-02-21T07:08:50.555Z,8.23
2019-02-21T07:10:26.249Z,7.80
2019-02-21T07:12:01.372Z,8.85
2019-02-21T07:13:37.455Z,9.00
2019-02-21T07:15:15.029Z,7.90
2019-02-21T07:16:49.730Z,7.57
2019-02-21T07:18:24.849Z,7.97
2019-02-21T07:19:59.961Z,7.37
2019-02-21T07:21:36.623Z,7.72
2019-02-21T07:23:11.801Z,9.03
2019-02-21T07:24:48.568Z,8.53
2019-02-21T07:26:24.000Z,8.10
2019-02-21T07:27:59.130Z,8.50
2019-02-21T07:29:34.251Z,7.77
2019-02-21T07:31:09.375Z,8.13
2019-02-21T07:32:44.486Z,9.00
2019-02-21T07:34:19.599Z,7.63
2019-02-21T07:35:55.150Z,8.33
2019-02-21T07:37:30.272Z,8.50
2019-02-21T07:39:16.933Z,8.97
2019-02-21T07:40:43.296Z,8.70
2019-02-21T07:42:18.417Z,8.17
2019-02-21T07:43:53.611Z,8.33
2019-02-21T07:45:28.737Z,8.87
2019-02-21T07:47:04.178Z,11.00
2019-02-21T07:48:39.360Z,10.43
2019-02-21T07:50:14.483Z,10.37
2019-02-21T07:51:49.614Z,9.43
2019-02-21T07:53:24.732Z,10.07
2019-02-21T07:55:02.211Z,10.97
2019-02-21T07:56:41.954Z,9.47
2019-02-21T07:58:13.483Z,9.83
2019-02-21T07:59:48.608Z,10.13
2019-02-21T08:01:23.739Z,11.60
2019-02-21T08:02:59.150Z,11.83
2019-02-21T08:04:36.906Z,10.40
2019-02-21T08:06:11.115Z,11.05
2019-02-21T08:07:46.239Z,10.40
2019-02-21T08:09:21.745Z,10.63
2019-02-21T08:10:57.572Z,10.03
2019-02-21T08:12:32.698Z,10.87
2019-02-21T08:14:07.811Z,11.88
2019-02-21T08:15:42.933Z,11.97
2019-02-21T08:17:18.062Z,11.77
2019-02-21T08:18:53.453Z,12.20
2019-02-21T08:20:34.051Z,11.33
2019-02-21T08:22:05.402Z,11.85
2019-02-21T08:23:50.011Z,11.38
2019-02-21T08:25:19.279Z,13.30
2019-02-21T08:26:54.186Z,12.93
2019-02-21T08:28:29.307Z,12.67
2019-02-21T08:30:07.175Z,12.30
2019-02-21T08:31:42.298Z,12.63
2019-02-21T08:33:22.038Z,12.17
2019-02-21T08:34:57.524Z,11.17
2019-02-21T08:36:32.669Z,11.53
2019-02-21T08:38:07.811Z,10.95
2019-02-21T08:39:42.937Z,11.53
2019-02-21T08:41:18.067Z,11.73
2019-02-21T08:42:53.213Z,12.43
2019-02-21T08:44:29.145Z,12.50
2019-02-21T08:46:04.661Z,14.43
2019-02-21T08:47:39.962Z,12.07
2019-02-21T08:49:15.078Z,12.68
2019-02-21T08:50:50.206Z,13.00
2019-02-21T08:52:25.592Z,12.00
2019-02-21T08:54:01.696Z,12.60
2019-02-21T08:55:36.804Z,11.83
2019-02-21T08:57:11.936Z,12.58
2019-02-21T08:58:47.054Z,11.73
2019-02-21T09:00:22.180Z,12.33
2019-02-21T09:01:57.308Z,12.37
2019-02-21T09:03:32.446Z,11.40
2019-02-21T09:05:10.279Z,12.70
2019-02-21T09:06:45.411Z,12.05
2019-02-21T09:08:20.530Z,12.03
2019-02-21T09:09:55.677Z,12.93
2019-02-21T09:11:31.028Z,14.03
2019-02-21T09:13:06.157Z,14.20
2019-02-21T09:14:41.290Z,13.48
2019-02-21T09:16:17.770Z,13.62
2019-02-21T09:17:54.204Z,15.47
2019-02-21T09:19:30.584Z,14.27
2019-02-21T09:21:06.148Z,14.85
2019-02-21T09:22:41.276Z,13.58
2019-02-21T09:24:35.061Z,14.33
2019-02-21T09:25:53.225Z,14.07
2019-02-21T09:27:29.237Z,12.82
2019-02-21T09:29:04.622Z,13.53
2019-02-21T09:30:40.004Z,15.00
2019-02-21T09:32:15.151Z,13.75
2019-02-21T09:33:50.523Z,14.07
2019-02-21T09:35:25.642Z,14.10
2019-02-21T09:37:01.031Z,14.30
2019-02-21T09:38:36.157Z,14.13
2019-02-21T09:40:15.303Z,13.65
2019-02-21T09:41:50.432Z,13.60
2019-02-21T09:43:25.559Z,13.90
2019-02-21T09:45:00.669Z,13.70
2019-02-21T09:46:35.789Z,13.03
2019-02-21T09:48:12.034Z,14.50
2019-02-21T09:49:47.255Z,13.03
2019-02-21T09:51:22.380Z,12.60
2019-02-21T09:52:57.510Z,12.87
2019-02-21T09:54:32.635Z,13.27
2019-02-21T09:56:07.754Z,12.63
2019-02-21T09:57:43.141Z,13.70
2019-02-21T09:59:19.226Z,13.03
2019-02-21T10:00:54.349Z,12.07
2019-02-21T10:02:29.670Z,13.47
2019-02-21T10:04:04.781Z,12.73
2019-02-21T10:05:39.912Z,14.18
2019-02-21T10:07:15.051Z,13.85
2019-02-21T10:08:50.426Z,13.30
2019-02-21T10:10:25.545Z,12.63
2019-02-21T10:12:00.669Z,14.13
2019-02-21T10:13:35.792Z,13.45
2019-02-21T10:15:13.550Z,13.30
2019-02-21T10:16:49.681Z,13.87
2019-02-21T10:18:25.840Z,13.77
2019-02-21T10:20:00.963Z,12.83
2019-02-21T10:21:36.107Z,12.45
2019-02-21T10:23:11.238Z,13.83
2019-02-21T10:24:47.326Z,12.90
2019-02-21T10:26:22.460Z,13.50
2019-02-21T10:27:58.987Z,12.70
2019-02-21T10:29:34.385Z,12.55
2019-02-21T10:31:09.511Z,13.65
2019-02-21T10:32:44.641Z,12.85
2019-02-21T10:34:21.800Z,13.07
2019-02-21T10:35:56.579Z,12.80
2019-02-21T10:37:31.708Z,12.07
2019-02-21T10:39:06.839Z,12.13
2019-02-21T10:40:42.229Z,11.88
2019-02-21T10:42:17.370Z,13.58
2019-02-21T10:43:52.499Z,12.30
2019-02-21T10:45:27.640Z,12.37
2019-02-21T10:47:02.764Z,12.57
2019-02-21T10:48:37.893Z,12.88
2019-02-21T10:50:19.107Z,11.78
2019-02-21T10:51:54.230Z,11.77
2019-02-21T10:53:30.197Z,11.40
2019-02-21T10:55:06.448Z,12.58
2019-02-21T10:56:41.574Z,11.97
2019-02-21T10:58:16.697Z,12.75
2019-02-21T10:59:51.815Z,12.20
2019-02-21T11:01:26.940Z,13.13
2019-02-21T11:03:02.071Z,13.60
2019-02-21T11:04:37.194Z,12.25
2019-02-21T11:06:12.324Z,11.37
2019-02-21T11:07:47.453Z,12.40
2019-02-21T11:09:22.574Z,12.60
2019-02-21T11:10:57.698Z,12.23
2019-02-21T11:12:32.825Z,11.67
2019-02-21T11:14:07.951Z,12.90
2019-02-21T11:15:43.077Z,12.13
2019-02-21T11:17:18.197Z,12.13
2019-02-21T11:18:53.327Z,12.37
2019-02-21T11:20:28.441Z,13.57
2019-02-21T11:22:03.556Z,12.93
2019-02-21T11:23:38.683Z,13.55
2019-02-21T11:25:13.872Z,14.38
2019-02-21T11:26:48.986Z,14.30
2019-02-21T11:28:24.121Z,13.27
2019-02-21T11:30:00.399Z,15.00
2019-02-21T11:31:35.503Z,12.73
2019-02-21T11:33:10.644Z,13.13
2019-02-21T11:34:45.778Z,12.15
2019-02-21T11:36:21.157Z,12.27
2019-02-21T11:37:56.286Z,11.13
2019-02-21T11:39:31.476Z,10.83
2019-02-21T11:41:06.614Z,11.12
2019-02-21T11:42:41.733Z,12.18
2019-02-21T11:44:16.865Z,12.07
2019-02-21T11:45:55.269Z,11.20
2019-02-21T11:47:29.091Z,11.73
2019-02-21T11:49:04.457Z,11.67
2019-02-21T11:50:39.579Z,12.10
2019-02-21T11:52:14.713Z,12.30
2019-02-21T11:53:49.848Z,13.47
2019-02-21T11:55:26.404Z,12.90
2019-02-21T11:57:01.538Z,13.03
2019-02-21T11:58:36.919Z,13.80
2019-02-21T12:00:18.990Z,13.50
2019-02-21T12:01:54.117Z,12.30
2019-02-21T12:03:29.532Z,12.60
2019-02-21T12:05:05.186Z,12.33
2019-02-21T12:06:40.566Z,11.65
2019-02-21T12:08:15.693Z,13.40
2019-02-21T12:09:50.814Z,13.73
2019-02-21T12:11:25.938Z,13.17
2019-02-21T12:13:01.620Z,12.70
2019-02-21T12:14:37.718Z,12.18
2019-02-21T12:16:12.860Z,12.47
2019-02-21T12:17:47.980Z,13.03
2019-02-21T12:19:23.099Z,12.00
2019-02-21T12:20:58.217Z,13.77
2019-02-21T12:22:33.342Z,13.57
2019-02-21T12:24:08.543Z,13.22
2019-02-21T12:25:43.921Z,12.35
2019-02-21T12:27:19.047Z,12.55
2019-02-21T12:28:54.174Z,12.80
2019-02-21T12:30:29.292Z,12.23
2019-02-21T12:32:04.418Z,13.63
2019-02-21T12:33:39.812Z,11.95
2019-02-21T12:35:14.945Z,12.68
2019-02-21T12:36:50.076Z,13.07
2019-02-21T12:38:25.211Z,12.67
2019-02-21T12:40:00.324Z,12.87
2019-02-21T12:41:35.714Z,13.53
2019-02-21T12:43:10.832Z,11.30
2019-02-21T12:44:47.772Z,11.80
2019-02-21T12:46:22.781Z,12.07
2019-02-21T12:47:58.162Z,14.47
2019-02-21T12:49:33.288Z,14.53
2019-02-21T12:51:08.410Z,14.53
2019-02-21T12:52:43.534Z,12.98
2019-02-21T12:54:18.661Z,12.15
2019-02-21T12:55:53.771Z,11.60
2019-02-21T12:57:28.888Z,10.77
2019-02-21T12:59:04.020Z,12.00
2019-02-21T13:00:39.147Z,11.90
2019-02-21T13:02:14.264Z,12.37
2019-02-21T13:03:49.658Z,11.97
2019-02-21T13:05:25.042Z,11.30
2019-02-21T13:07:00.183Z,10.63
2019-02-21T13:08:35.310Z,11.13
2019-02-21T13:10:22.209Z,12.28
2019-02-21T13:11:57.331Z,10.60
2019-02-21T13:13:32.462Z,12.60
2019-02-21T13:15:11.295Z,15.88
2019-02-21T13:16:46.764Z,14.67
2019-02-21T13:18:21.886Z,13.73
2019-02-21T13:19:57.020Z,14.80
2019-02-21T13:21:32.670Z,14.55
2019-02-21T13:23:07.790Z,14.23
2019-02-21T13:24:42.924Z,12.88
2019-02-21T13:26:18.053Z,11.48
2019-02-21T13:27:53.194Z,10.20
2019-02-21T13:29:28.333Z,10.37
2019-02-21T13:31:03.448Z,10.47
2019-02-21T13:32:38.564Z,9.10
2019-02-21T13:34:13.691Z,9.68
2019-02-21T13:35:52.770Z,9.90
2019-02-21T13:37:28.759Z,9.03
2019-02-21T13:39:04.833Z,9.83
2019-02-21T13:40:40.128Z,9.43
2019-02-21T13:42:15.496Z,10.68
2019-02-21T13:43:50.622Z,9.63
2019-02-21T13:45:26.058Z,10.13
2019-02-21T13:47:01.173Z,9.60
2019-02-21T13:48:36.627Z,9.80
2019-02-21T13:50:17.689Z,10.05
2019-02-21T13:51:53.782Z,10.30
2019-02-21T13:53:28.929Z,9.53
2019-02-21T13:55:04.831Z,10.67
2019-02-21T13:56:39.954Z,10.03
2019-02-21T13:58:15.076Z,9.88
2019-02-21T13:59:50.211Z,9.77
2019-02-21T14:01:25.336Z,11.00
2019-02-21T14:03:00.454Z,10.50
2019-02-21T14:04:35.585Z,10.03
2019-02-21T14:06:10.955Z,9.80
2019-02-21T14:07:46.092Z,10.03
2019-02-21T14:09:21.287Z,9.63
2019-02-21T14:10:56.392Z,9.83
2019-02-21T14:12:31.510Z,9.33
2019-02-21T14:14:06.639Z,9.67
2019-02-21T14:15:41.749Z,9.30
2019-02-21T14:17:16.900Z,10.08
2019-02-21T14:18:52.984Z,9.13
2019-02-21T14:20:28.103Z,9.60
2019-02-21T14:22:03.265Z,9.47
2019-02-21T14:23:38.395Z,10.40
2019-02-21T14:25:13.523Z,9.20
2019-02-21T14:26:48.644Z,9.90
2019-02-21T14:28:23.771Z,10.37
2019-02-21T14:29:58.894Z,10.10
2019-02-21T14:31:34.013Z,10.23
2019-02-21T14:33:09.126Z,10.53
2019-02-21T14:34:44.254Z,10.78
2019-02-21T14:36:19.498Z,10.35
2019-02-21T14:37:54.617Z,10.07
2019-02-21T14:39:29.707Z,12.20
2019-02-21T14:41:04.895Z,10.77
2019-02-21T14:42:40.032Z,11.10
2019-02-21T14:44:15.164Z,11.83
2019-02-21T14:45:50.283Z,10.70
2019-02-21T14:47:25.412Z,10.10
2019-02-21T14:49:00.550Z,11.43
2019-02-21T14:50:36.191Z,11.23
2019-02-21T14:52:11.301Z,11.22
2019-02-21T14:53:46.425Z,9.60
2019-02-21T14:55:21.830Z,10.43
2019-02-21T14:56:56.953Z,9.77
2019-02-21T14:58:32.064Z,9.67
2019-02-21T15:00:24.381Z,10.90
2019-02-21T15:01:59.501Z,10.80
2019-02-21T15:03:34.902Z,10.47
2019-02-21T15:05:10.312Z,10.65
2019-02-21T15:06:46.412Z,12.75
2019-02-21T15:08:22.157Z,12.57
2019-02-21T15:09:57.347Z,12.10
2019-02-21T15:11:33.607Z,11.97
2019-02-21T15:13:09.033Z,11.03
2019-02-21T15:14:44.156Z,12.65
2019-02-21T15:16:19.542Z,12.55
2019-02-21T15:17:54.669Z,13.07
2019-02-21T15:19:29.789Z,12.50
2019-02-21T15:21:04.911Z,10.83
2019-02-21T15:22:40.030Z,11.60
2019-02-21T15:24:15.157Z,11.93
2019-02-21T15:25:50.284Z,11.45
2019-02-21T15:27:26.414Z,11.70
2019-02-21T15:29:01.503Z,11.43
2019-02-21T15:30:36.636Z,11.00
2019-02-21T15:32:14.305Z,11.85
2019-02-21T15:33:49.633Z,11.63
2019-02-21T15:35:24.762Z,12.37
2019-02-21T15:36:59.883Z,11.13
2019-02-21T15:38:34.997Z,10.88
2019-02-21T15:40:10.700Z,10.67
2019-02-21T15:41:45.896Z,9.88
2019-02-21T15:43:21.028Z,10.25
2019-02-21T15:44:56.416Z,10.27
2019-02-21T15:46:32.503Z,10.57
2019-02-21T15:48:08.228Z,10.37
2019-02-21T15:49:43.322Z,10.80
2019-02-21T15:51:21.545Z,10.70
2019-02-21T15:52:57.774Z,10.00
2019-02-21T15:54:34.384Z,9.83
2019-02-21T15:56:10.486Z,9.53
2019-02-21T15:57:45.606Z,8.98
2019-02-21T15:59:20.723Z,9.18
2019-02-21T16:00:55.853Z,9.33
2019-02-21T16:02:30.966Z,9.97
2019-02-21T16:04:06.391Z,10.03
2019-02-21T16:05:41.776Z,10.90
2019-02-21T16:07:16.902Z,11.00
2019-02-21T16:08:52.048Z,10.37
2019-02-21T16:10:28.263Z,11.03
2019-02-21T16:12:05.762Z,11.10
2019-02-21T16:13:41.226Z,10.50
2019-02-21T16:15:16.812Z,10.25
2019-02-21T16:16:51.896Z,9.85
2019-02-21T16:18:27.017Z,9.43
2019-02-21T16:20:02.149Z,10.63
2019-02-21T16:21:37.575Z,11.00
2019-02-21T16:23:13.071Z,11.60
2019-02-21T16:24:48.272Z,10.77
2019-02-21T16:26:23.391Z,10.97
2019-02-21T16:27:58.512Z,10.23
2019-02-21T16:29:34.919Z,10.58
2019-02-21T16:31:11.013Z,9.90
2019-02-21T16:32:46.125Z,9.88
2019-02-21T16:34:21.245Z,9.73
2019-02-21T16:35:56.367Z,9.97
2019-02-21T16:37:31.480Z,9.90
2019-02-21T16:39:06.593Z,9.90
2019-02-21T16:40:41.894Z,11.00
2019-02-21T16:42:17.052Z,11.08
2019-02-21T16:43:52.141Z,10.45
2019-02-21T16:45:39.798Z,10.90
2019-02-21T16:47:05.722Z,10.10
2019-02-21T16:48:40.973Z,9.70
2019-02-21T16:50:16.100Z,9.90
2019-02-21T16:51:51.218Z,9.50
2019-02-21T16:53:26.338Z,9.17
2019-02-21T16:55:01.456Z,8.93
2019-02-21T16:56:36.647Z,8.50
2019-02-21T16:58:11.769Z,9.20
2019-02-21T16:59:46.892Z,9.48
2019-02-21T17:01:22.021Z,9.28
2019-02-21T17:02:57.458Z,8.90
2019-02-21T17:04:32.822Z,8.37
2019-02-21T17:06:07.951Z,8.90
2019-02-21T17:07:43.157Z,8.60
2019-02-21T17:09:18.273Z,8.45
2019-02-21T17:10:53.401Z,8.97
2019-02-21T17:12:28.537Z,8.63
2019-02-21T17:14:03.651Z,8.37
2019-02-21T17:15:38.837Z,7.73
2019-02-21T17:17:14.189Z,8.05
2019-02-21T17:18:49.285Z,8.48
2019-02-21T17:20:25.342Z,8.13
2019-02-21T17:22:00.466Z,7.33
2019-02-21T17:23:36.744Z,7.60
2019-02-21T17:25:14.629Z,7.58
2019-02-21T17:26:49.778Z,7.37
2019-02-21T17:28:24.887Z,7.20
2019-02-21T17:30:00.347Z,8.10
2019-02-21T17:31:37.287Z,8.67
2019-02-21T17:33:12.588Z,8.53
2019-02-21T17:34:47.964Z,7.70
2019-02-21T17:36:23.121Z,8.58
2019-02-21T17:37:58.234Z,8.10
2019-02-21T17:39:33.608Z,8.13
2019-02-21T17:41:08.734Z,8.27
2019-02-21T17:42:44.106Z,9.17
2019-02-21T17:44:19.231Z,8.00
2019-02-21T17:45:54.372Z,7.50
2019-02-21T17:47:29.730Z,7.80
2019-02-21T17:49:04.852Z,9.30
2019-02-21T17:50:39.961Z,8.67
2019-02-21T17:52:15.114Z,8.30
2019-02-21T17:53:50.228Z,8.58
2019-02-21T17:55:25.332Z,8.10
2019-02-21T17:57:00.465Z,8.30
2019-02-21T17:58:36.782Z,7.90
2019-02-21T18:00:22.843Z,8.77
2019-02-21T18:01:58.228Z,8.40
2019-02-21T18:03:33.952Z,6.97
2019-02-21T18:05:10.613Z,7.60
2019-02-21T18:06:46.803Z,7.30
2019-02-21T18:08:21.912Z,7.42
2019-02-21T18:09:57.035Z,8.00
2019-02-21T18:11:32.437Z,7.90
2019-02-21T18:13:07.807Z,8.83
2019-02-21T18:14:43.190Z,7.53
2019-02-21T18:16:18.320Z,9.35
2019-02-21T18:17:53.685Z,8.08
2019-02-21T18:19:28.803Z,8.10
2019-02-21T18:21:03.925Z,8.10
2019-02-21T18:22:39.036Z,9.77
2019-02-21T18:24:15.121Z,9.30
2019-02-21T18:25:57.651Z,9.63
2019-02-21T18:27:32.771Z,8.67
2019-02-21T18:29:08.143Z,8.93
2019-02-21T18:30:43.257Z,9.13
2019-02-21T18:32:18.446Z,9.40
2019-02-21T18:33:53.603Z,8.98
2019-02-21T18:35:28.722Z,8.20
2019-02-21T18:37:03.845Z,8.77
2019-02-21T18:38:38.965Z,10.47
2019-02-21T18:40:21.292Z,9.30
2019-02-21T18:41:56.438Z,9.75
2019-02-21T18:43:31.550Z,11.07
2019-02-21T18:45:09.768Z,9.70
2019-02-21T18:46:44.899Z,9.63
2019-02-21T18:48:20.021Z,10.38
2019-02-21T18:49:55.154Z,10.23
2019-02-21T18:51:30.268Z,10.10
2019-02-21T18:53:07.494Z,10.00
2019-02-21T18:54:43.582Z,10.38
2019-02-21T18:56:18.723Z,8.20
2019-02-21T18:57:53.933Z,8.48
2019-02-21T18:59:31.973Z,9.60
2019-02-21T19:01:05.868Z,9.67
2019-02-21T19:02:41.055Z,9.70
2019-02-21T19:04:16.289Z,9.63
2019-02-21T19:05:51.407Z,9.50
2019-02-21T19:07:26.646Z,9.37
2019-02-21T19:09:01.766Z,10.37
2019-02-21T19:10:38.502Z,9.23
2019-02-21T19:12:13.639Z,10.75
2019-02-21T19:13:48.752Z,10.17
2019-02-21T19:15:24.752Z,10.85
2019-02-21T19:16:59.923Z,8.93
2019-02-21T19:18:35.015Z,8.60
2019-02-21T19:20:15.482Z,10.60
2019-02-21T19:21:50.621Z,10.23
2019-02-21T19:23:26.708Z,9.80
2019-02-21T19:25:01.865Z,10.00
2019-02-21T19:26:37.932Z,9.38
2019-02-21T19:28:13.054Z,10.93
2019-02-21T19:29:48.189Z,9.97
2019-02-21T19:31:23.303Z,9.63
2019-02-21T19:32:58.489Z,9.53
2019-02-21T19:34:33.763Z,9.47
2019-02-21T19:36:08.888Z,10.07
2019-02-21T19:37:44.010Z,9.27
2019-02-21T19:39:19.140Z,8.90
2019-02-21T19:40:54.500Z,8.40
2019-02-21T19:42:29.871Z,8.33
2019-02-21T19:44:08.761Z,8.50
2019-02-21T19:45:41.878Z,10.60
2019-02-21T19:47:16.997Z,8.73
2019-02-21T19:48:52.407Z,8.93
2019-02-21T19:50:27.775Z,9.07
2019-02-21T19:52:03.887Z,10.83
2019-02-21T19:53:39.277Z,10.37
2019-02-21T19:55:14.603Z,9.98
2019-02-21T19:56:49.734Z,10.32
2019-02-21T19:58:25.106Z,10.90
2019-02-21T20:00:00.352Z,10.93
2019-02-21T20:01:38.612Z,11.73
2019-02-21T20:03:13.745Z,11.22
2019-02-21T20:04:48.854Z,11.93
2019-02-21T20:06:23.981Z,10.90
2019-02-21T20:08:08.086Z,10.53
2019-02-21T20:09:36.022Z,10.43
2019-02-21T20:11:11.166Z,12.00
2019-02-21T20:12:46.298Z,11.27
2019-02-21T20:14:21.416Z,11.57
2019-02-21T20:15:56.562Z,10.97
2019-02-21T20:17:31.673Z,12.03
2019-02-21T20:19:06.785Z,11.67
2019-02-21T20:20:41.927Z,11.93
2019-02-21T20:22:17.050Z,10.72
2019-02-21T20:23:52.424Z,13.17
2019-02-21T20:25:27.552Z,12.28
2019-02-21T20:27:02.722Z,12.50
2019-02-21T20:28:38.618Z,12.90
2019-02-21T20:30:16.751Z,11.97
2019-02-21T20:31:51.927Z,11.87
2019-02-21T20:33:27.232Z,13.40
2019-02-21T20:35:02.343Z,12.47
2019-02-21T20:36:38.600Z,12.33
2019-02-21T20:38:13.734Z,11.30
2019-02-21T20:39:48.855Z,11.30
2019-02-21T20:41:24.048Z,10.90
2019-02-21T20:42:59.170Z,12.87
2019-02-21T20:44:34.296Z,13.30
2019-02-21T20:46:09.422Z,12.40
2019-02-21T20:47:44.555Z,13.03
2019-02-21T20:49:19.683Z,15.10
2019-02-21T20:50:57.271Z,13.83
2019-02-21T20:52:31.622Z,11.73
2019-02-21T20:54:06.742Z,12.87
2019-02-21T20:55:43.771Z,13.47